createdAt,value
2023-01-01T00:00:39.168Z,98828.03
2023-01-01T00:01:42.609Z,98833.34
2023-01-01T00:02:45.374Z,98831.06
2023-01-01T00:03:49.605Z,98834.91
2023-01-01T00:04:52.489Z,98830.34
2023-01-01T00:05:55.210Z,98828.38
2023-01-01T00:06:57.054Z,98828.91
2023-01-01T00:08:05.065Z,98824.97
2023-01-01T00:09:26.392Z,98834.91
2023-01-01T00:10:29.540Z,98829.50
2023-01-01T00:11:31.329Z,98826.69
2023-01-01T00:12:34.140Z,98834.13
2023-01-01T00:13:37.774Z,98835.56
2023-01-01T00:14:42.900Z,98831.81
2023-01-01T00:15:45.676Z,98833.13
2023-01-01T00:16:47.583Z,98835.41
2023-01-01T00:17:50.724Z,98829.78
2023-01-01T00:18:53.466Z,98835.34
2023-01-01T00:19:55.377Z,98828.06
2023-01-01T00:21:03.350Z,98819.84
2023-01-01T00:22:35.266Z,98818.47
2023-01-01T00:23:31.972Z,98827.75
2023-01-01T00:24:34.725Z,98815.91
2023-01-01T00:25:37.489Z,98817.00
2023-01-01T00:26:39.492Z,98818.13
2023-01-01T00:27:42.398Z,98814.81
2023-01-01T00:28:44.608Z,98815.94
2023-01-01T00:29:47.685Z,98811.03
2023-01-01T00:30:49.445Z,98819.19
2023-01-01T00:31:52.612Z,98818.34
2023-01-01T00:32:56.536Z,98815.94
2023-01-01T00:33:59.526Z,98816.88
2023-01-01T00:35:02.269Z,98806.63
2023-01-01T00:36:08.237Z,98812.63
2023-01-01T00:37:11.613Z,98816.16
2023-01-01T00:38:13.543Z,98808.38
2023-01-01T00:39:18.179Z,98808.38
2023-01-01T00:40:20.099Z,98815.22
2023-01-01T00:41:23.288Z,98815.88
2023-01-01T00:42:26.100Z,98812.25
2023-01-01T00:43:28.900Z,98811.03
2023-01-01T00:44:30.691Z,98812.41
2023-01-01T00:45:33.624Z,98813.78
2023-01-01T00:46:35.510Z,98810.91
2023-01-01T00:47:38.323Z,98808.84
2023-01-01T00:48:40.544Z,98816.44
2023-01-01T00:49:43.285Z,98825.69
2023-01-01T00:50:45.149Z,98820.31
2023-01-01T00:51:47.924Z,98827.13
2023-01-01T00:52:51.353Z,98828.19
2023-01-01T00:53:54.103Z,98834.38
2023-01-01T00:54:57.566Z,98829.59
2023-01-01T00:56:00.391Z,98825.72
2023-01-01T00:57:02.223Z,98829.72
2023-01-01T00:58:05.134Z,98830.25
2023-01-01T00:59:08.067Z,98834.16
2023-01-01T01:00:12.379Z,98840.72
2023-01-01T01:01:14.565Z,98842.75
2023-01-01T01:02:17.486Z,98839.63
2023-01-01T01:03:28.085Z,98843.34
2023-01-01T01:04:32.928Z,98838.50
2023-01-01T01:05:37.263Z,98839.66
2023-01-01T01:06:40.021Z,98835.56
2023-01-01T01:07:42.163Z,98846.09
2023-01-01T01:08:47.430Z,98835.06
2023-01-01T01:09:49.172Z,98837.03
2023-01-01T01:10:53.597Z,98832.97
2023-01-01T01:12:18.709Z,98829.09
2023-01-01T01:13:18.080Z,98822.78
2023-01-01T01:14:20.905Z,98829.88
2023-01-01T01:15:22.670Z,98835.22
2023-01-01T01:16:27.356Z,98828.47
2023-01-01T01:17:30.525Z,98829.41
2023-01-01T01:18:32.274Z,98831.25
2023-01-01T01:19:35.075Z,98842.50
2023-01-01T01:20:36.929Z,98839.09
2023-01-01T01:21:39.677Z,98838.25
2023-01-01T01:22:41.595Z,98840.94
2023-01-01T01:23:44.496Z,98838.44
2023-01-01T01:24:47.646Z,98835.22
2023-01-01T01:26:10.454Z,98837.84
2023-01-01T01:27:17.737Z,98837.22
2023-01-01T01:28:19.492Z,98843.28
2023-01-01T01:29:22.219Z,98839.03
2023-01-01T01:30:24.052Z,98836.47
2023-01-01T01:31:29.553Z,98839.88
2023-01-01T01:32:32.322Z,98844.16
2023-01-01T01:33:34.516Z,98838.97
2023-01-01T01:34:37.308Z,98840.53
2023-01-01T01:35:39.116Z,98838.97
2023-01-01T01:36:42.280Z,98838.06
2023-01-01T01:37:44.974Z,98834.63
2023-01-01T01:38:47.211Z,98843.22
2023-01-01T01:39:53.822Z,98835.38
2023-01-01T01:40:57.054Z,98834.53
2023-01-01T01:41:58.889Z,98834.44
2023-01-01T01:43:03.434Z,98836.97
2023-01-01T01:44:50.312Z,98830.75
2023-01-01T01:45:55.681Z,98833.63
2023-01-01T01:46:57.616Z,98829.47
2023-01-01T01:48:00.726Z,98832.94
2023-01-01T01:49:05.399Z,98826.22
2023-01-01T01:50:12.165Z,98829.78
2023-01-01T01:51:17.019Z,98829.16
2023-01-01T01:52:20.102Z,98826.63
2023-01-01T01:53:26.884Z,98826.56
2023-01-01T01:54:29.407Z,98813.56
2023-01-01T01:55:35.357Z,98814.13
2023-01-01T01:56:42.970Z,98801.84
2023-01-01T01:57:44.784Z,98805.84
2023-01-01T01:59:07.768Z,98803.88
2023-01-01T02:00:11.742Z,98799.38
2023-01-01T02:01:14.932Z,98802.53
2023-01-01T02:02:22.402Z,98805.66
2023-01-01T02:03:28.407Z,98800.97
2023-01-01T02:04:30.232Z,98803.28
2023-01-01T02:05:33.286Z,98802.09
2023-01-01T02:06:35.492Z,98800.72
2023-01-01T02:07:38.433Z,98794.06
2023-01-01T02:08:40.273Z,98796.09
2023-01-01T02:09:43.451Z,98795.72
2023-01-01T02:10:45.257Z,98804.75
2023-01-01T02:11:48.032Z,98807.00
2023-01-01T02:12:50.155Z,98805.84
2023-01-01T02:13:53.949Z,98802.25
2023-01-01T02:14:57.227Z,98801.22
2023-01-01T02:16:22.881Z,98792.84
2023-01-01T02:17:28.438Z,98795.59
2023-01-01T02:18:36.304Z,98792.47
2023-01-01T02:19:44.950Z,98798.75
2023-01-01T02:20:51.389Z,98805.06
2023-01-01T02:22:00.187Z,98799.22
2023-01-01T02:23:34.159Z,98802.00
2023-01-01T02:25:00.223Z,98804.78
2023-01-01T02:26:26.552Z,98807.66
2023-01-01T02:27:36.168Z,98802.84
2023-01-01T02:28:48.545Z,98804.88
2023-01-01T02:29:54.221Z,98804.41
2023-01-01T02:30:57.418Z,98802.94
2023-01-01T02:32:03.329Z,98801.44
2023-01-01T02:33:09.139Z,98800.78
2023-01-01T02:34:15.478Z,98797.47
2023-01-01T02:35:35.682Z,98791.47
2023-01-01T02:36:41.517Z,98780.81
2023-01-01T02:37:43.398Z,98794.03
2023-01-01T02:38:48.105Z,98794.44
2023-01-01T02:39:54.867Z,98806.06
2023-01-01T02:41:00.550Z,98791.19
2023-01-01T02:42:05.254Z,98802.94
2023-01-01T02:43:07.229Z,98803.38
2023-01-01T02:44:12.319Z,98805.25
2023-01-01T02:45:14.090Z,98808.94
2023-01-01T02:47:20.068Z,98814.59
2023-01-01T02:48:40.315Z,98805.34
2023-01-01T02:49:49.255Z,98807.16
2023-01-01T02:50:51.670Z,98820.47
2023-01-01T02:52:06.244Z,98818.94
2023-01-01T02:53:19.027Z,98827.94
2023-01-01T02:54:25.925Z,98815.47
2023-01-01T02:55:37.132Z,98816.03
2023-01-01T02:56:43.297Z,98819.06
2023-01-01T02:57:50.613Z,98819.59
2023-01-01T02:59:16.519Z,98821.72
2023-01-01T03:00:27.527Z,98836.91
2023-01-01T03:01:33.072Z,98843.16
2023-01-01T03:02:45.301Z,98834.69
2023-01-01T03:04:00.344Z,98836.59
2023-01-01T03:05:08.712Z,98832.41
2023-01-01T03:06:27.009Z,98834.44
2023-01-01T03:07:34.997Z,98830.44
2023-01-01T03:08:43.009Z,98830.69
2023-01-01T03:09:56.183Z,98831.03
2023-01-01T03:11:02.894Z,98820.22
2023-01-01T03:12:08.438Z,98835.31
2023-01-01T03:13:17.468Z,98823.56
2023-01-01T03:14:24.563Z,98816.91
2023-01-01T03:15:31.283Z,98819.75
2023-01-01T03:16:39.279Z,98818.34
2023-01-01T03:17:46.737Z,98831.41
2023-01-01T03:19:10.813Z,98825.50
2023-01-01T03:20:19.340Z,98835.84
2023-01-01T03:21:22.212Z,98830.66
2023-01-01T03:22:29.093Z,98840.91
2023-01-01T03:23:35.766Z,98826.34
2023-01-01T03:24:41.215Z,98829.06
2023-01-01T03:25:47.137Z,98827.56
2023-01-01T03:26:52.044Z,98822.63
2023-01-01T03:27:57.400Z,98824.47
2023-01-01T03:29:01.087Z,98826.25
2023-01-01T03:30:08.329Z,98827.75
2023-01-01T03:31:14.296Z,98815.47
2023-01-01T03:32:19.860Z,98815.19
2023-01-01T03:33:25.243Z,98819.16
2023-01-01T03:34:31.836Z,98817.22
2023-01-01T03:35:39.080Z,98825.75
2023-01-01T03:36:45.576Z,98832.56
2023-01-01T03:37:49.309Z,98829.84
2023-01-01T03:38:54.259Z,98834.13
2023-01-01T03:39:58.982Z,98826.38
2023-01-01T03:41:03.431Z,98828.16
2023-01-01T03:42:12.787Z,98832.56
2023-01-01T03:43:17.369Z,98833.56
2023-01-01T03:44:24.563Z,98837.06
2023-01-01T03:45:29.699Z,98834.56
2023-01-01T03:46:35.691Z,98839.88
2023-01-01T03:47:37.824Z,98839.31
2023-01-01T03:49:02.123Z,98835.25
2023-01-01T03:50:07.301Z,98831.06
2023-01-01T03:51:14.404Z,98835.41
2023-01-01T03:52:28.013Z,98838.72
2023-01-01T03:53:37.322Z,98837.72
2023-01-01T03:54:46.638Z,98822.06
2023-01-01T03:55:51.523Z,98825.31
2023-01-01T03:56:59.204Z,98825.22
2023-01-01T03:58:03.404Z,98823.41
2023-01-01T03:59:12.492Z,98825.75
2023-01-01T04:00:17.169Z,98823.75
2023-01-01T04:01:25.059Z,98817.47
2023-01-01T04:02:32.185Z,98822.38
2023-01-01T04:03:35.829Z,98829.88
2023-01-01T04:04:37.894Z,98827.81
2023-01-01T04:05:42.499Z,98823.13
2023-01-01T04:06:44.618Z,98822.69
2023-01-01T04:08:49.513Z,98821.81
2023-01-01T04:09:53.842Z,98827.31
2023-01-01T04:10:57.962Z,98824.38
2023-01-01T04:12:04.105Z,98822.34
2023-01-01T04:13:07.907Z,98819.50
2023-01-01T04:14:09.674Z,98828.66
2023-01-01T04:15:12.490Z,98824.03
2023-01-01T04:16:14.459Z,98824.59
2023-01-01T04:17:17.399Z,98828.69
2023-01-01T04:18:20.548Z,98831.84
2023-01-01T04:19:23.794Z,98825.56
2023-01-01T04:20:27.046Z,98835.53
2023-01-01T04:21:28.811Z,98830.00
2023-01-01T04:22:31.665Z,98836.56
2023-01-01T04:23:33.451Z,98824.94
2023-01-01T04:24:36.301Z,98820.50
2023-01-01T04:25:38.120Z,98828.81
2023-01-01T04:26:40.829Z,98834.66
2023-01-01T04:27:42.764Z,98837.13
2023-01-01T04:28:45.600Z,98832.63
2023-01-01T04:29:48.351Z,98830.66
2023-01-01T04:30:50.146Z,98820.94
2023-01-01T04:31:52.939Z,98824.25
2023-01-01T04:32:55.778Z,98823.25
2023-01-01T04:33:58.940Z,98817.03
2023-01-01T04:35:02.151Z,98816.03
2023-01-01T04:36:06.246Z,98823.53
2023-01-01T04:37:13.195Z,98831.09
2023-01-01T04:38:15.571Z,98833.41
2023-01-01T04:39:18.362Z,98839.22
2023-01-01T04:40:20.105Z,98827.75
2023-01-01T04:41:22.911Z,98830.16
2023-01-01T04:42:24.666Z,98821.47
2023-01-01T04:43:27.492Z,98821.47
2023-01-01T04:44:29.356Z,98821.53
2023-01-01T04:45:32.182Z,98834.44
2023-01-01T04:46:34.001Z,98830.91
2023-01-01T04:47:55.440Z,98840.22
2023-01-01T04:48:59.248Z,98832.28
2023-01-01T04:50:01.983Z,98827.00
2023-01-01T04:51:05.147Z,98823.28
2023-01-01T04:52:08.803Z,98835.94
2023-01-01T04:53:10.553Z,98860.66
2023-01-01T04:54:13.299Z,98849.06
2023-01-01T04:55:15.525Z,98854.81
2023-01-01T04:56:19.836Z,98829.44
2023-01-01T04:57:21.577Z,98831.84
2023-01-01T04:58:24.455Z,98830.81
2023-01-01T04:59:26.602Z,98834.75
2023-01-01T05:00:29.331Z,98841.41
2023-01-01T05:01:32.155Z,98835.94
2023-01-01T05:02:35.022Z,98837.50
2023-01-01T05:03:37.297Z,98838.97
2023-01-01T05:04:42.357Z,98836.19
2023-01-01T05:05:49.446Z,98838.66
2023-01-01T05:06:54.024Z,98833.47
2023-01-01T05:07:56.107Z,98831.81
2023-01-01T05:08:59.535Z,98840.53
2023-01-01T05:10:01.389Z,98837.13
2023-01-01T05:11:06.624Z,98845.91
2023-01-01T05:12:08.473Z,98842.59
2023-01-01T05:13:11.178Z,98847.78
2023-01-01T05:14:12.979Z,98848.69
2023-01-01T05:15:15.885Z,98851.50
2023-01-01T05:16:20.143Z,98860.41
2023-01-01T05:17:22.959Z,98866.09
2023-01-01T05:18:24.759Z,98866.56
2023-01-01T05:19:27.513Z,98856.00
2023-01-01T05:20:30.815Z,98858.22
2023-01-01T05:21:35.147Z,98854.47
2023-01-01T05:22:36.925Z,98854.94
2023-01-01T05:23:40.315Z,98853.56
2023-01-01T05:24:42.073Z,98860.13
2023-01-01T05:25:45.311Z,98853.56
2023-01-01T05:26:48.623Z,98864.13
2023-01-01T05:27:51.166Z,98865.06
2023-01-01T05:28:53.881Z,98867.72
2023-01-01T05:29:55.694Z,98870.31
2023-01-01T05:30:58.509Z,98870.31
2023-01-01T05:32:00.352Z,98873.66
2023-01-01T05:33:03.148Z,98869.22
2023-01-01T05:35:07.853Z,98879.56
2023-01-01T05:36:15.623Z,98878.66
2023-01-01T05:37:18.352Z,98880.59
2023-01-01T05:38:20.125Z,98877.25
2023-01-01T05:39:22.926Z,98880.13
2023-01-01T05:40:24.704Z,98875.31
2023-01-01T05:41:28.257Z,98877.44
2023-01-01T05:42:30.086Z,98875.97
2023-01-01T05:43:32.886Z,98880.59
2023-01-01T05:44:35.740Z,98878.25
2023-01-01T05:45:37.632Z,98874.13
2023-01-01T05:46:40.559Z,98879.28
2023-01-01T05:47:42.355Z,98878.25
2023-01-01T05:48:45.559Z,98875.50
2023-01-01T05:49:47.314Z,98868.66
2023-01-01T05:50:50.093Z,98861.81
2023-01-01T05:51:53.535Z,98867.09
2023-01-01T05:52:56.320Z,98860.81
2023-01-01T05:53:58.813Z,98863.84
2023-01-01T05:55:01.806Z,98855.53
2023-01-01T05:56:04.374Z,98859.63
2023-01-01T05:57:07.146Z,98868.00
2023-01-01T05:58:09.378Z,98860.91
2023-01-01T05:59:12.320Z,98870.16
2023-01-01T06:00:15.264Z,98869.75
2023-01-01T06:01:19.695Z,98865.88
2023-01-01T06:02:21.645Z,98872.34
2023-01-01T06:03:24.467Z,98877.03
2023-01-01T06:04:27.342Z,98884.53
2023-01-01T06:05:30.181Z,98880.66
2023-01-01T06:06:33.179Z,98878.59
2023-01-01T06:07:37.596Z,98894.53
2023-01-01T06:08:39.793Z,98884.53
2023-01-01T06:09:42.509Z,98888.28
2023-01-01T06:10:45.148Z,98877.22
2023-01-01T06:11:48.860Z,98885.47
2023-01-01T06:12:50.655Z,98888.91
2023-01-01T06:13:54.193Z,98888.91
2023-01-01T06:14:55.947Z,98896.94
2023-01-01T06:16:00.175Z,98906.69
2023-01-01T06:17:02.154Z,98910.72
2023-01-01T06:18:05.182Z,98910.41
2023-01-01T06:19:06.973Z,98910.38
2023-01-01T06:20:11.877Z,98906.91
2023-01-01T06:21:14.925Z,98904.16
2023-01-01T06:22:17.688Z,98899.97
2023-01-01T06:23:20.975Z,98905.94
2023-01-01T06:24:23.687Z,98904.25
2023-01-01T06:25:25.465Z,98901.81
2023-01-01T06:26:30.117Z,98905.41
2023-01-01T06:27:31.947Z,98916.56
2023-01-01T06:28:34.755Z,98914.94
2023-01-01T06:29:37.711Z,98908.22
2023-01-01T06:30:39.594Z,98917.47
2023-01-01T06:31:42.788Z,98904.19
2023-01-01T06:32:44.591Z,98912.75
2023-01-01T06:33:48.100Z,98910.97
2023-01-01T06:34:50.846Z,98915.09
2023-01-01T06:35:52.679Z,98923.41
2023-01-01T06:36:57.114Z,98924.84
2023-01-01T06:38:01.912Z,98925.22
2023-01-01T06:39:06.215Z,98928.19
2023-01-01T06:40:09.303Z,98929.50
2023-01-01T06:41:13.330Z,98924.75
2023-01-01T06:42:16.263Z,98927.97
2023-01-01T06:43:18.060Z,98934.59
2023-01-01T06:44:20.839Z,98936.84
2023-01-01T06:45:22.643Z,98949.31
2023-01-01T06:46:26.651Z,98941.97
2023-01-01T06:47:28.460Z,98937.22
2023-01-01T06:48:31.894Z,98942.91
2023-01-01T06:49:34.906Z,98941.84
2023-01-01T06:50:36.680Z,98938.28
2023-01-01T06:51:40.867Z,98948.47
2023-01-01T06:52:42.631Z,98949.19
2023-01-01T06:53:45.460Z,98940.53
2023-01-01T06:54:48.810Z,98947.38
2023-01-01T06:55:56.714Z,98948.13
2023-01-01T06:56:59.945Z,98944.56
2023-01-01T06:58:02.109Z,98954.88
2023-01-01T06:59:05.319Z,98957.94
2023-01-01T07:00:08.803Z,98952.28
2023-01-01T07:01:13.391Z,98950.81
2023-01-01T07:02:16.300Z,98948.44
2023-01-01T07:03:18.156Z,98954.75
2023-01-01T07:04:20.938Z,98955.66
2023-01-01T07:05:22.813Z,98950.69
2023-01-01T07:06:26.351Z,98954.31
2023-01-01T07:07:34.074Z,98957.00
2023-01-01T07:08:38.874Z,98958.19
2023-01-01T07:09:40.644Z,98961.13
2023-01-01T07:10:44.869Z,98959.66
2023-01-01T07:11:47.630Z,98965.22
2023-01-01T07:12:49.391Z,98974.91
2023-01-01T07:13:52.172Z,98979.66
2023-01-01T07:14:55.627Z,98977.59
2023-01-01T07:15:58.855Z,98974.03
2023-01-01T07:17:02.063Z,98977.94
2023-01-01T07:18:04.378Z,98976.72
2023-01-01T07:19:07.180Z,98970.41
2023-01-01T07:20:09.561Z,98976.19
2023-01-01T07:21:29.199Z,98984.91
2023-01-01T07:22:32.441Z,98978.69
2023-01-01T07:23:35.664Z,98972.75
2023-01-01T07:24:39.959Z,98980.72
2023-01-01T07:25:42.293Z,98976.59
2023-01-01T07:26:46.809Z,98982.06
2023-01-01T07:27:48.624Z,98981.50
2023-01-01T07:28:51.481Z,98989.59
2023-01-01T07:29:53.446Z,98994.94
2023-01-01T07:30:56.243Z,98984.75
2023-01-01T07:31:59.035Z,98989.38
2023-01-01T07:33:01.353Z,98986.19
2023-01-01T07:34:04.137Z,98983.72
2023-01-01T07:35:06.817Z,98989.91
2023-01-01T07:36:10.321Z,98985.88
2023-01-01T07:37:12.332Z,98980.06
2023-01-01T07:38:16.213Z,98974.28
2023-01-01T07:39:19.005Z,98988.28
2023-01-01T07:40:20.722Z,98983.06
2023-01-01T07:41:23.463Z,98984.97
2023-01-01T07:42:28.096Z,98990.31
2023-01-01T07:43:29.865Z,99003.38
2023-01-01T07:44:32.652Z,99000.91
2023-01-01T07:45:35.116Z,99005.28
2023-01-01T07:46:38.320Z,99004.44
2023-01-01T07:47:40.276Z,99008.16
2023-01-01T07:48:43.370Z,99003.06
2023-01-01T07:49:45.132Z,98996.16
2023-01-01T07:50:48.151Z,98997.94
2023-01-01T07:51:50.994Z,98999.97
2023-01-01T07:52:52.780Z,99003.66
2023-01-01T07:53:59.288Z,99012.69
2023-01-01T07:55:04.538Z,99004.28
2023-01-01T07:56:08.397Z,99007.13
2023-01-01T07:57:11.171Z,98999.53
2023-01-01T07:58:14.371Z,98999.78
2023-01-01T07:59:20.371Z,99005.38
2023-01-01T08:00:22.728Z,99011.78
2023-01-01T08:01:25.714Z,99017.25
2023-01-01T08:02:28.578Z,99019.28
2023-01-01T08:03:32.199Z,99022.13
2023-01-01T08:04:35.426Z,99018.81
2023-01-01T08:05:38.995Z,99019.88
2023-01-01T08:06:41.735Z,99023.31
2023-01-01T08:07:46.541Z,99028.66
2023-01-01T08:08:50.040Z,99024.50
2023-01-01T08:09:51.840Z,99028.28
2023-01-01T08:10:57.671Z,99038.94
2023-01-01T08:12:06.566Z,99038.38
2023-01-01T08:13:09.906Z,99039.41
2023-01-01T08:14:15.339Z,99032.69
2023-01-01T08:15:17.582Z,99038.00
2023-01-01T08:16:20.342Z,99043.34
2023-01-01T08:17:22.368Z,99038.13
2023-01-01T08:18:25.134Z,99037.16
2023-01-01T08:19:27.928Z,99040.50
2023-01-01T08:20:31.075Z,99044.50
2023-01-01T08:21:33.862Z,99043.47
2023-01-01T08:22:35.679Z,99037.88
2023-01-01T08:23:38.594Z,99041.97
2023-01-01T08:24:40.911Z,99043.47
2023-01-01T08:25:43.667Z,99039.69
2023-01-01T08:26:48.764Z,99036.59
2023-01-01T08:27:51.576Z,99043.13
2023-01-01T08:28:57.188Z,99043.44
2023-01-01T08:30:01.781Z,99037.88
2023-01-01T08:31:04.658Z,99042.72
2023-01-01T08:32:06.462Z,99044.97
2023-01-01T08:33:09.387Z,99041.03
2023-01-01T08:34:12.127Z,99033.81
2023-01-01T08:35:14.348Z,99044.72
2023-01-01T08:36:17.666Z,99039.13
2023-01-01T08:37:24.905Z,99038.63
2023-01-01T08:38:29.523Z,99045.97
2023-01-01T08:39:31.472Z,99042.03
2023-01-01T08:40:34.293Z,99046.88
2023-01-01T08:41:36.095Z,99050.91
2023-01-01T08:42:38.914Z,99049.00
2023-01-01T08:43:41.669Z,99050.69
2023-01-01T08:44:43.424Z,99056.59
2023-01-01T08:45:47.759Z,99046.13
2023-01-01T08:46:49.641Z,99047.78
2023-01-01T08:47:52.432Z,99049.44
2023-01-01T08:48:54.315Z,99047.66
2023-01-01T08:49:57.018Z,99047.66
2023-01-01T08:51:00.691Z,99051.00
2023-01-01T08:52:03.463Z,99052.66
2023-01-01T08:53:06.253Z,99056.09
2023-01-01T08:54:09.098Z,99051.56
2023-01-01T08:55:12.281Z,99057.50
2023-01-01T08:56:16.594Z,99050.13
2023-01-01T08:57:19.343Z,99048.78
2023-01-01T08:58:22.901Z,99048.41
2023-01-01T08:59:25.976Z,99050.38
2023-01-01T09:00:27.766Z,99045.47
2023-01-01T09:01:32.167Z,99048.28
2023-01-01T09:02:35.222Z,99049.97
2023-01-01T09:03:38.135Z,99047.31
2023-01-01T09:04:40.403Z,99051.66
2023-01-01T09:05:45.780Z,99057.50
2023-01-01T09:06:48.152Z,99058.97
2023-01-01T09:07:50.988Z,99068.94
2023-01-01T09:08:52.764Z,99054.78
2023-01-01T09:09:55.464Z,99056.34
2023-01-01T09:10:58.807Z,99059.53
2023-01-01T09:12:06.079Z,99048.91
2023-01-01T09:13:09.012Z,99051.28
2023-01-01T09:14:11.153Z,99052.13
2023-01-01T09:15:15.823Z,99043.31
2023-01-01T09:16:18.869Z,99052.03
2023-01-01T09:17:22.170Z,99049.41
2023-01-01T09:18:25.129Z,99045.25
2023-01-01T09:19:27.620Z,99048.00
2023-01-01T09:20:30.449Z,99045.09
2023-01-01T09:21:33.148Z,99043.00
2023-01-01T09:22:35.913Z,99047.13
2023-01-01T09:23:38.775Z,99048.81
2023-01-01T09:24:41.520Z,99043.41
2023-01-01T09:25:44.280Z,99047.53
2023-01-01T09:26:47.130Z,99052.53
2023-01-01T09:27:50.422Z,99051.41
2023-01-01T09:28:52.672Z,99043.25
2023-01-01T09:35:31.820Z,99041.16
2023-01-01T09:36:53.842Z,99025.81
2023-01-01T09:37:57.047Z,99015.53
2023-01-01T09:38:59.889Z,99017.44
2023-01-01T09:40:03.932Z,99016.72
2023-01-01T09:41:12.837Z,99020.25
2023-01-01T09:42:26.083Z,99017.06
2023-01-01T09:43:34.347Z,99019.28
2023-01-01T09:44:53.106Z,99016.16
2023-01-01T09:45:57.958Z,99026.69
2023-01-01T09:47:05.400Z,99022.28
2023-01-01T09:48:12.764Z,99019.50
2023-01-01T09:49:18.901Z,99021.31
2023-01-01T09:50:23.712Z,99017.84
2023-01-01T09:51:30.001Z,99015.34
2023-01-01T09:52:39.328Z,99007.63
2023-01-01T09:53:46.688Z,98999.91
2023-01-01T09:54:52.704Z,99005.28
2023-01-01T09:55:58.003Z,99016.75
2023-01-01T09:57:02.669Z,99007.41
2023-01-01T09:58:05.453Z,99003.78
2023-01-01T09:59:08.794Z,99004.59
2023-01-01T10:00:16.906Z,98997.72
2023-01-01T10:01:32.722Z,99008.22
2023-01-01T10:02:41.600Z,98999.50
2023-01-01T10:03:49.018Z,99006.25
2023-01-01T10:05:00.466Z,99005.16
2023-01-01T10:06:15.077Z,99012.59
2023-01-01T10:07:25.654Z,99013.09
2023-01-01T10:08:38.514Z,99009.25
2023-01-01T10:09:47.802Z,99010.63
2023-01-01T10:10:57.464Z,99019.03
2023-01-01T10:12:04.051Z,99006.41
2023-01-01T10:13:16.034Z,99004.31
2023-01-01T10:14:23.329Z,99004.03
2023-01-01T10:15:30.285Z,99014.25
2023-01-01T10:16:36.087Z,99017.41
2023-01-01T10:17:41.894Z,99011.00
2023-01-01T10:18:46.001Z,99011.38
2023-01-01T10:19:51.802Z,99011.94
2023-01-01T10:21:00.148Z,99009.28
2023-01-01T10:22:07.551Z,99014.56
2023-01-01T10:23:16.081Z,99019.16
2023-01-01T10:24:43.934Z,99012.22
2023-01-01T10:25:46.130Z,99007.81
2023-01-01T10:26:49.170Z,99013.72
2023-01-01T10:27:59.338Z,99017.03
2023-01-01T10:29:05.426Z,99011.75
2023-01-01T10:30:15.808Z,99017.72
2023-01-01T10:31:20.069Z,99008.03
2023-01-01T10:32:28.456Z,99014.25
2023-01-01T10:33:30.236Z,99010.81
2023-01-01T10:34:34.329Z,99017.56
2023-01-01T10:35:40.283Z,99015.91
2023-01-01T10:36:42.992Z,99011.31
2023-01-01T10:37:46.153Z,99011.84
2023-01-01T10:38:50.945Z,99008.91
2023-01-01T10:39:52.717Z,99010.13
2023-01-01T10:40:57.739Z,98999.13
2023-01-01T10:42:01.748Z,98994.13
2023-01-01T10:43:04.893Z,98996.13
2023-01-01T10:44:07.756Z,98998.16
2023-01-01T10:45:12.939Z,99001.81
2023-01-01T10:46:18.546Z,99000.25
2023-01-01T10:47:25.830Z,98996.81
2023-01-01T10:48:30.429Z,98987.34
2023-01-01T10:49:33.157Z,98991.84
2023-01-01T10:50:41.821Z,98995.53
2023-01-01T10:51:46.320Z,98995.72
2023-01-01T10:52:56.428Z,98990.66
2023-01-01T10:54:00.895Z,98999.75
2023-01-01T10:55:04.975Z,98997.63
2023-01-01T10:56:11.176Z,99002.25
2023-01-01T10:57:15.890Z,98997.34
2023-01-01T10:58:34.036Z,99003.97
2023-01-01T10:59:39.326Z,98991.97
2023-01-01T11:00:42.083Z,98991.66
2023-01-01T11:01:45.393Z,98995.59
2023-01-01T11:02:47.482Z,98995.28
2023-01-01T11:03:55.531Z,98987.09
2023-01-01T11:05:21.049Z,99002.56
2023-01-01T11:06:26.781Z,98996.16
2023-01-01T11:07:31.939Z,98996.66
2023-01-01T11:08:35.602Z,98994.69
2023-01-01T11:09:39.804Z,98996.16
2023-01-01T11:10:42.792Z,98981.03
2023-01-01T11:11:46.846Z,98982.00
2023-01-01T11:13:06.522Z,98980.34
2023-01-01T11:14:20.820Z,98990.72
2023-01-01T11:15:36.021Z,98992.53
2023-01-01T11:16:39.750Z,98978.53
2023-01-01T11:17:42.751Z,98984.63
2023-01-01T11:18:45.512Z,98974.91
2023-01-01T11:19:51.899Z,98973.13
2023-01-01T11:20:58.461Z,98966.19
2023-01-01T11:22:01.717Z,98971.31
2023-01-01T11:23:20.467Z,98962.59
2023-01-01T11:24:25.297Z,98963.41
2023-01-01T11:25:32.479Z,98962.25
2023-01-01T11:26:35.242Z,98959.31
2023-01-01T11:27:37.161Z,98961.75
2023-01-01T11:28:40.730Z,98958.97
2023-01-01T11:29:43.872Z,98961.44
2023-01-01T11:30:59.653Z,98963.09
2023-01-01T11:32:02.477Z,98959.63
2023-01-01T11:33:05.905Z,98955.03
2023-01-01T11:34:27.016Z,98957.47
2023-01-01T11:35:32.221Z,98951.38
2023-01-01T11:36:36.118Z,98946.13
2023-01-01T11:37:39.890Z,98952.06
2023-01-01T11:38:42.767Z,98942.19
2023-01-01T11:39:45.888Z,98936.72
2023-01-01T11:40:52.416Z,98933.13
2023-01-01T11:41:57.669Z,98939.22
2023-01-01T11:43:03.043Z,98943.50
2023-01-01T11:44:05.028Z,98940.88
2023-01-01T11:45:13.705Z,98941.69
2023-01-01T11:46:18.239Z,98949.59
2023-01-01T11:47:26.071Z,98945.97
2023-01-01T11:48:31.353Z,98948.31
2023-01-01T11:49:34.375Z,98943.06
2023-01-01T11:50:39.764Z,98951.63
2023-01-01T11:51:42.354Z,98947.16
2023-01-01T11:52:46.505Z,98960.19
2023-01-01T11:53:48.685Z,98956.75
2023-01-01T11:54:51.924Z,98969.06
2023-01-01T11:56:03.365Z,98969.94
2023-01-01T11:57:10.150Z,98959.53
2023-01-01T11:58:19.840Z,98975.34
2023-01-01T11:59:25.847Z,98969.06
2023-01-01T12:00:29.477Z,98976.03
2023-01-01T12:01:38.414Z,98970.75
2023-01-01T12:02:45.637Z,98970.75
2023-01-01T12:03:50.650Z,98960.19
2023-01-01T12:04:55.929Z,98959.22
2023-01-01T12:06:04.224Z,98962.84
2023-01-01T12:07:08.318Z,98967.94
2023-01-01T12:08:15.458Z,98967.59
2023-01-01T12:09:23.756Z,98966.97
2023-01-01T12:10:28.777Z,98955.09
2023-01-01T12:11:35.987Z,98964.31
2023-01-01T12:12:42.084Z,98959.72
2023-01-01T12:13:50.916Z,98953.28
2023-01-01T12:14:56.012Z,98959.06
2023-01-01T12:16:05.100Z,98960.53
2023-01-01T12:17:18.584Z,98954.13
2023-01-01T12:18:23.929Z,98948.50
2023-01-01T12:19:29.793Z,98956.91
2023-01-01T12:20:34.975Z,98948.69
2023-01-01T12:21:40.367Z,98949.50
2023-01-01T12:22:43.200Z,98949.97
2023-01-01T12:23:46.189Z,98943.72
2023-01-01T12:24:49.623Z,98950.13
2023-01-01T12:25:59.313Z,98940.41
2023-01-01T12:27:14.206Z,98943.22
2023-01-01T12:28:25.640Z,98947.00
2023-01-01T12:29:44.430Z,98943.72
2023-01-01T12:30:52.476Z,98943.72
2023-01-01T12:32:01.505Z,98957.72
2023-01-01T12:33:24.654Z,98952.44
2023-01-01T12:34:30.685Z,98947.34
2023-01-01T12:35:42.340Z,98944.88
2023-01-01T12:36:50.174Z,98935.28
2023-01-01T12:38:19.477Z,98937.28
2023-01-01T12:40:01.934Z,98933.50
2023-01-01T12:41:09.208Z,98937.28
2023-01-01T12:42:17.489Z,98938.28
2023-01-01T12:43:24.291Z,98933.50
2023-01-01T12:44:36.414Z,98937.13
2023-01-01T12:45:54.628Z,98923.25
2023-01-01T12:47:01.146Z,98930.88
2023-01-01T12:48:15.748Z,98941.75
2023-01-01T12:49:31.252Z,98933.50
2023-01-01T12:50:40.868Z,98944.53
2023-01-01T12:51:51.455Z,98952.44
2023-01-01T12:53:00.836Z,98948.34
2023-01-01T12:54:28.307Z,98952.63
2023-01-01T12:55:56.359Z,98969.78